sensor_id;sensor_type;location;lat;lon;timestamp;P1;durP1;ratioP1;P2;durP2;ratioP2
27303;SDS011;14791;52.392;13.092;2023-04-08T00:02:08;2.50;;;2.50;;
27303;SDS011;14791;52.392;13.092;2023-04-08T00:04:37;2.80;;;2.70;;
27303;SDS011;14791;52.392;13.092;2023-04-08T00:07:06;2.30;;;2.30;;
27303;SDS011;14791;52.392;13.092;2023-04-08T00:09:35;2.20;;;2.20;;
27303;SDS011;14791;52.392;13.092;2023-04-08T00:12:04;2.80;;;2.70;;
27303;SDS011;14791;52.392;13.092;2023-04-08T00:14:33;3.03;;;2.93;;
27303;SDS011;14791;52.392;13.092;2023-04-08T00:17:04;2.87;;;2.77;;
27303;SDS011;14791;52.392;13.092;2023-04-08T00:19:33;3.00;;;2.90;;
27303;SDS011;14791;52.392;13.092;2023-04-08T00:22:02;3.23;;;3.03;;
27303;SDS011;14791;52.392;13.092;2023-04-08T00:24:31;3.10;;;3.00;;
27303;SDS011;14791;52.392;13.092;2023-04-08T00:27:00;3.10;;;3.00;;
27303;SDS011;14791;52.392;13.092;2023-04-08T00:29:29;3.33;;;3.23;;
27303;SDS011;14791;52.392;13.092;2023-04-08T00:31:58;2.80;;;2.70;;
27303;SDS011;14791;52.392;13.092;2023-04-08T00:34:27;3.00;;;2.90;;
27303;SDS011;14791;52.392;13.092;2023-04-08T00:36:56;2.90;;;2.80;;
27303;SDS011;14791;52.392;13.092;2023-04-08T00:39:25;3.00;;;2.90;;
27303;SDS011;14791;52.392;13.092;2023-04-08T00:41:54;3.37;;;3.27;;
27303;SDS011;14791;52.392;13.092;2023-04-08T00:44:23;3.00;;;2.90;;
27303;SDS011;14791;52.392;13.092;2023-04-08T00:46:52;3.60;;;3.50;;
27303;SDS011;14791;52.392;13.092;2023-04-08T00:49:22;3.60;;;3.40;;
27303;SDS011;14791;52.392;13.092;2023-04-08T00:51:52;3.60;;;3.50;;
27303;SDS011;14791;52.392;13.092;2023-04-08T00:54:21;4.17;;;4.03;;
27303;SDS011;14791;52.392;13.092;2023-04-08T00:56:50;4.73;;;4.53;;
27303;SDS011;14791;52.392;13.092;2023-04-08T00:59:19;4.90;;;4.70;;
27303;SDS011;14791;52.392;13.092;2023-04-08T01:02:06;5.10;;;4.90;;
27303;SDS011;14791;52.392;13.092;2023-04-08T01:04:51;5.50;;;5.20;;
27303;SDS011;14791;52.392;13.092;2023-04-08T01:07:26;5.17;;;4.97;;
27303;SDS011;14791;52.392;13.092;2023-04-08T01:10:25;5.77;;;5.57;;
27303;SDS011;14791;52.392;13.092;2023-04-08T01:12:39;5.30;;;5.10;;
27303;SDS011;14791;52.392;13.092;2023-04-08T01:15:10;5.80;;;5.50;;
27303;SDS011;14791;52.392;13.092;2023-04-08T01:17:39;5.77;;;5.47;;
27303;SDS011;14791;52.392;13.092;2023-04-08T01:20:10;6.43;;;6.13;;
27303;SDS011;14791;52.392;13.092;2023-04-08T01:22:45;6.17;;;5.83;;
27303;SDS011;14791;52.392;13.092;2023-04-08T01:25:25;6.00;;;5.70;;
27303;SDS011;14791;52.392;13.092;2023-04-08T01:28:01;6.47;;;6.17;;
27303;SDS011;14791;52.392;13.092;2023-04-08T01:30:33;6.97;;;6.57;;
27303;SDS011;14791;52.392;13.092;2023-04-08T01:33:02;6.70;;;6.30;;
27303;SDS011;14791;52.392;13.092;2023-04-08T01:35:32;6.67;;;6.30;;
27303;SDS011;14791;52.392;13.092;2023-04-08T01:38:02;7.73;;;7.13;;
27303;SDS011;14791;52.392;13.092;2023-04-08T01:40:34;7.37;;;6.90;;
27303;SDS011;14791;52.392;13.092;2023-04-08T01:43:06;7.17;;;6.57;;
27303;SDS011;14791;52.392;13.092;2023-04-08T01:45:37;7.80;;;7.30;;
27303;SDS011;14791;52.392;13.092;2023-04-08T01:48:06;7.67;;;7.27;;
27303;SDS011;14791;52.392;13.092;2023-04-08T01:50:36;8.37;;;7.80;;
27303;SDS011;14791;52.392;13.092;2023-04-08T01:53:07;8.00;;;7.40;;
27303;SDS011;14791;52.392;13.092;2023-04-08T01:55:39;7.83;;;7.37;;
27303;SDS011;14791;52.392;13.092;2023-04-08T01:58:11;9.67;;;8.87;;
27303;SDS011;14791;52.392;13.092;2023-04-08T02:00:43;8.70;;;8.10;;
27303;SDS011;14791;52.392;13.092;2023-04-08T02:03:13;9.43;;;8.73;;
27303;SDS011;14791;52.392;13.092;2023-04-08T02:05:45;8.87;;;8.13;;
27303;SDS011;14791;52.392;13.092;2023-04-08T02:08:14;8.67;;;8.07;;
27303;SDS011;14791;52.392;13.092;2023-04-08T02:10:43;8.50;;;7.90;;
27303;SDS011;14791;52.392;13.092;2023-04-08T02:13:13;9.47;;;8.77;;
27303;SDS011;14791;52.392;13.092;2023-04-08T02:15:43;9.83;;;9.03;;
27303;SDS011;14791;52.392;13.092;2023-04-08T02:18:21;10.63;;;9.73;;
27303;SDS011;14791;52.392;13.092;2023-04-08T02:20:47;9.73;;;9.03;;
27303;SDS011;14791;52.392;13.092;2023-04-08T02:23:21;10.27;;;9.37;;
27303;SDS011;14791;52.392;13.092;2023-04-08T02:25:54;10.33;;;9.33;;
27303;SDS011;14791;52.392;13.092;2023-04-08T02:28:26;10.20;;;9.27;;
27303;SDS011;14791;52.392;13.092;2023-04-08T02:30:57;9.87;;;9.07;;
27303;SDS011;14791;52.392;13.092;2023-04-08T02:33:29;9.53;;;8.83;;
27303;SDS011;14791;52.392;13.092;2023-04-08T02:36:00;10.53;;;9.73;;
27303;SDS011;14791;52.392;13.092;2023-04-08T02:38:29;10.90;;;9.90;;
27303;SDS011;14791;52.392;13.092;2023-04-08T02:40:58;10.07;;;9.07;;
27303;SDS011;14791;52.392;13.092;2023-04-08T02:43:28;10.67;;;9.77;;
27303;SDS011;14791;52.392;13.092;2023-04-08T02:46:02;11.10;;;10.00;;
27303;SDS011;14791;52.392;13.092;2023-04-08T02:48:31;10.50;;;9.53;;
27303;SDS011;14791;52.392;13.092;2023-04-08T02:51:00;11.07;;;10.17;;
27303;SDS011;14791;52.392;13.092;2023-04-08T02:53:29;11.07;;;10.10;;
27303;SDS011;14791;52.392;13.092;2023-04-08T02:55:58;10.87;;;9.77;;
27303;SDS011;14791;52.392;13.092;2023-04-08T02:58:27;10.97;;;9.93;;
27303;SDS011;14791;52.392;13.092;2023-04-08T03:00:56;10.97;;;9.93;;
27303;SDS011;14791;52.392;13.092;2023-04-08T03:03:25;11.50;;;10.50;;
27303;SDS011;14791;52.392;13.092;2023-04-08T03:05:55;11.33;;;10.33;;
27303;SDS011;14791;52.392;13.092;2023-04-08T03:08:25;11.37;;;10.37;;
27303;SDS011;14791;52.392;13.092;2023-04-08T03:10:54;11.03;;;10.13;;
27303;SDS011;14791;52.392;13.092;2023-04-08T03:13:23;12.10;;;10.93;;
27303;SDS011;14791;52.392;13.092;2023-04-08T03:15:52;12.13;;;11.00;;
27303;SDS011;14791;52.392;13.092;2023-04-08T03:18:21;11.87;;;10.73;;
27303;SDS011;14791;52.392;13.092;2023-04-08T03:20:50;11.47;;;10.30;;
27303;SDS011;14791;52.392;13.092;2023-04-08T03:23:19;11.60;;;10.40;;
27303;SDS011;14791;52.392;13.092;2023-04-08T03:25:48;11.57;;;10.57;;
27303;SDS011;14791;52.392;13.092;2023-04-08T03:28:17;11.83;;;10.70;;
27303;SDS011;14791;52.392;13.092;2023-04-08T03:30:46;11.90;;;10.83;;
27303;SDS011;14791;52.392;13.092;2023-04-08T03:33:15;12.50;;;11.40;;
27303;SDS011;14791;52.392;13.092;2023-04-08T03:35:44;12.87;;;11.57;;
27303;SDS011;14791;52.392;13.092;2023-04-08T03:38:12;13.03;;;11.73;;
27303;SDS011;14791;52.392;13.092;2023-04-08T03:40:41;12.93;;;11.63;;
27303;SDS011;14791;52.392;13.092;2023-04-08T03:43:10;12.80;;;11.53;;
27303;SDS011;14791;52.392;13.092;2023-04-08T03:45:40;13.57;;;12.20;;
27303;SDS011;14791;52.392;13.092;2023-04-08T03:48:09;13.17;;;11.80;;
27303;SDS011;14791;52.392;13.092;2023-04-08T03:50:38;13.70;;;12.33;;
27303;SDS011;14791;52.392;13.092;2023-04-08T03:53:07;12.97;;;11.67;;
27303;SDS011;14791;52.392;13.092;2023-04-08T03:55:38;13.93;;;12.07;;
27303;SDS011;14791;52.392;13.092;2023-04-08T03:58:07;12.70;;;11.37;;
27303;SDS011;14791;52.392;13.092;2023-04-08T04:00:36;13.03;;;11.70;;
27303;SDS011;14791;52.392;13.092;2023-04-08T04:03:05;13.23;;;11.70;;
27303;SDS011;14791;52.392;13.092;2023-04-08T04:05:34;13.10;;;11.80;;
27303;SDS011;14791;52.392;13.092;2023-04-08T04:08:04;12.30;;;11.20;;
27303;SDS011;14791;52.392;13.092;2023-04-08T04:10:33;13.07;;;11.67;;
27303;SDS011;14791;52.392;13.092;2023-04-08T04:13:02;13.43;;;11.97;;
27303;SDS011;14791;52.392;13.092;2023-04-08T04:15:31;12.47;;;11.27;;
27303;SDS011;14791;52.392;13.092;2023-04-08T04:18:00;13.90;;;11.63;;
27303;SDS011;14791;52.392;13.092;2023-04-08T04:20:29;12.90;;;11.60;;
27303;SDS011;14791;52.392;13.092;2023-04-08T04:22:58;12.73;;;11.33;;
27303;SDS011;14791;52.392;13.092;2023-04-08T04:25:27;13.40;;;11.97;;
27303;SDS011;14791;52.392;13.092;2023-04-08T04:27:56;13.60;;;12.10;;
27303;SDS011;14791;52.392;13.092;2023-04-08T04:30:25;14.70;;;12.60;;
27303;SDS011;14791;52.392;13.092;2023-04-08T04:32:54;12.57;;;11.27;;
27303;SDS011;14791;52.392;13.092;2023-04-08T04:35:23;12.90;;;11.40;;
27303;SDS011;14791;52.392;13.092;2023-04-08T04:37:52;12.83;;;11.63;;
27303;SDS011;14791;52.392;13.092;2023-04-08T04:40:21;12.23;;;11.03;;
27303;SDS011;14791;52.392;13.092;2023-04-08T04:42:50;12.97;;;11.73;;
27303;SDS011;14791;52.392;13.092;2023-04-08T04:45:19;12.97;;;11.47;;
27303;SDS011;14791;52.392;13.092;2023-04-08T04:47:48;12.37;;;11.23;;
27303;SDS011;14791;52.392;13.092;2023-04-08T04:50:17;12.87;;;11.27;;
27303;SDS011;14791;52.392;13.092;2023-04-08T04:52:45;11.97;;;10.90;;
27303;SDS011;14791;52.392;13.092;2023-04-08T04:55:14;12.43;;;11.33;;
27303;SDS011;14791;52.392;13.092;2023-04-08T04:57:43;12.83;;;11.43;;
27303;SDS011;14791;52.392;13.092;2023-04-08T05:00:12;13.70;;;12.37;;
27303;SDS011;14791;52.392;13.092;2023-04-08T05:03:02;13.07;;;11.70;;
27303;SDS011;14791;52.392;13.092;2023-04-08T05:05:31;11.50;;;10.50;;
27303;SDS011;14791;52.392;13.092;2023-04-08T05:08:00;13.10;;;11.80;;
27303;SDS011;14791;52.392;13.092;2023-04-08T05:10:29;13.10;;;11.83;;
27303;SDS011;14791;52.392;13.092;2023-04-08T05:12:57;13.03;;;11.40;;
27303;SDS011;14791;52.392;13.092;2023-04-08T05:15:26;13.30;;;11.63;;
27303;SDS011;14791;52.392;13.092;2023-04-08T05:17:55;13.63;;;12.37;;
27303;SDS011;14791;52.392;13.092;2023-04-08T05:20:24;12.57;;;11.27;;
27303;SDS011;14791;52.392;13.092;2023-04-08T05:22:53;13.27;;;11.93;;
27303;SDS011;14791;52.392;13.092;2023-04-08T05:25:22;13.63;;;12.23;;
27303;SDS011;14791;52.392;13.092;2023-04-08T05:27:51;13.93;;;12.47;;
27303;SDS011;14791;52.392;13.092;2023-04-08T05:30:20;13.63;;;12.23;;
27303;SDS011;14791;52.392;13.092;2023-04-08T05:32:49;12.87;;;11.60;;
27303;SDS011;14791;52.392;13.092;2023-04-08T05:35:18;13.23;;;11.67;;
27303;SDS011;14791;52.392;13.092;2023-04-08T05:37:47;13.10;;;11.87;;
27303;SDS011;14791;52.392;13.092;2023-04-08T05:40:16;13.67;;;12.30;;
27303;SDS011;14791;52.392;13.092;2023-04-08T05:42:45;13.83;;;12.47;;
27303;SDS011;14791;52.392;13.092;2023-04-08T05:45:14;12.63;;;11.43;;
27303;SDS011;14791;52.392;13.092;2023-04-08T05:47:43;13.93;;;12.50;;
27303;SDS011;14791;52.392;13.092;2023-04-08T05:50:12;13.80;;;12.47;;
27303;SDS011;14791;52.392;13.092;2023-04-08T05:52:44;13.77;;;12.47;;
27303;SDS011;14791;52.392;13.092;2023-04-08T05:55:13;13.80;;;12.03;;
27303;SDS011;14791;52.392;13.092;2023-04-08T05:57:42;13.87;;;12.47;;
27303;SDS011;14791;52.392;13.092;2023-04-08T06:00:11;14.30;;;12.47;;
27303;SDS011;14791;52.392;13.092;2023-04-08T06:02:40;14.33;;;12.53;;
27303;SDS011;14791;52.392;13.092;2023-04-08T06:05:09;15.30;;;13.30;;
27303;SDS011;14791;52.392;13.092;2023-04-08T06:07:38;14.80;;;13.40;;
27303;SDS011;14791;52.392;13.092;2023-04-08T06:10:07;14.10;;;12.70;;
27303;SDS011;14791;52.392;13.092;2023-04-08T06:12:37;14.10;;;12.60;;
27303;SDS011;14791;52.392;13.092;2023-04-08T06:15:06;14.10;;;12.67;;
27303;SDS011;14791;52.392;13.092;2023-04-08T06:17:36;14.07;;;12.67;;
27303;SDS011;14791;52.392;13.092;2023-04-08T06:20:06;14.93;;;13.40;;
27303;SDS011;14791;52.392;13.092;2023-04-08T06:22:38;14.30;;;12.83;;
27303;SDS011;14791;52.392;13.092;2023-04-08T06:25:07;14.40;;;12.83;;
27303;SDS011;14791;52.392;13.092;2023-04-08T06:27:36;14.47;;;12.97;;
27303;SDS011;14791;52.392;13.092;2023-04-08T06:30:05;15.67;;;13.80;;
27303;SDS011;14791;52.392;13.092;2023-04-08T06:32:35;14.43;;;12.97;;
27303;SDS011;14791;52.392;13.092;2023-04-08T06:35:04;13.00;;;11.73;;
27303;SDS011;14791;52.392;13.092;2023-04-08T06:37:34;14.13;;;12.73;;
27303;SDS011;14791;52.392;13.092;2023-04-08T06:40:04;13.60;;;12.23;;
27303;SDS011;14791;52.392;13.092;2023-04-08T06:42:34;13.73;;;12.43;;
27303;SDS011;14791;52.392;13.092;2023-04-08T06:45:09;13.97;;;12.67;;
27303;SDS011;14791;52.392;13.092;2023-04-08T06:47:38;13.87;;;12.53;;
27303;SDS011;14791;52.392;13.092;2023-04-08T06:50:07;14.70;;;13.17;;
27303;SDS011;14791;52.392;13.092;2023-04-08T06:52:37;14.03;;;12.63;;
27303;SDS011;14791;52.392;13.092;2023-04-08T06:55:06;14.93;;;13.43;;
27303;SDS011;14791;52.392;13.092;2023-04-08T06:57:35;14.43;;;13.03;;
27303;SDS011;14791;52.392;13.092;2023-04-08T07:00:05;14.40;;;13.07;;
27303;SDS011;14791;52.392;13.092;2023-04-08T07:02:34;16.10;;;14.53;;
27303;SDS011;14791;52.392;13.092;2023-04-08T07:05:04;16.00;;;14.43;;
27303;SDS011;14791;52.392;13.092;2023-04-08T07:07:33;14.57;;;13.07;;
27303;SDS011;14791;52.392;13.092;2023-04-08T07:10:02;15.03;;;13.60;;
27303;SDS011;14791;52.392;13.092;2023-04-08T07:12:31;14.13;;;12.80;;
27303;SDS011;14791;52.392;13.092;2023-04-08T07:15:01;15.23;;;13.73;;
27303;SDS011;14791;52.392;13.092;2023-04-08T07:17:31;15.43;;;13.83;;
27303;SDS011;14791;52.392;13.092;2023-04-08T07:20:00;16.37;;;13.97;;
27303;SDS011;14791;52.392;13.092;2023-04-08T07:22:29;15.63;;;13.97;;
27303;SDS011;14791;52.392;13.092;2023-04-08T07:24:58;15.10;;;13.63;;
27303;SDS011;14791;52.392;13.092;2023-04-08T07:27:29;15.07;;;13.50;;
27303;SDS011;14791;52.392;13.092;2023-04-08T07:29:58;15.10;;;13.77;;
27303;SDS011;14791;52.392;13.092;2023-04-08T07:32:27;14.43;;;13.03;;
27303;SDS011;14791;52.392;13.092;2023-04-08T07:34:57;15.43;;;13.90;;
27303;SDS011;14791;52.392;13.092;2023-04-08T07:37:26;15.23;;;13.83;;
27303;SDS011;14791;52.392;13.092;2023-04-08T07:39:55;15.60;;;14.03;;
27303;SDS011;14791;52.392;13.092;2023-04-08T07:42:24;15.07;;;13.53;;
27303;SDS011;14791;52.392;13.092;2023-04-08T07:44:53;15.60;;;14.00;;
27303;SDS011;14791;52.392;13.092;2023-04-08T07:47:22;15.33;;;13.77;;
27303;SDS011;14791;52.392;13.092;2023-04-08T07:49:51;14.87;;;13.33;;
27303;SDS011;14791;52.392;13.092;2023-04-08T07:52:20;15.00;;;13.63;;
27303;SDS011;14791;52.392;13.092;2023-04-08T07:54:49;16.40;;;14.33;;
27303;SDS011;14791;52.392;13.092;2023-04-08T07:57:18;15.10;;;13.67;;
27303;SDS011;14791;52.392;13.092;2023-04-08T07:59:47;15.17;;;13.73;;
27303;SDS011;14791;52.392;13.092;2023-04-08T08:02:16;15.80;;;14.40;;
27303;SDS011;14791;52.392;13.092;2023-04-08T08:04:45;15.47;;;14.10;;
27303;SDS011;14791;52.392;13.092;2023-04-08T08:07:14;15.40;;;13.80;;
27303;SDS011;14791;52.392;13.092;2023-04-08T08:09:43;15.43;;;14.03;;
27303;SDS011;14791;52.392;13.092;2023-04-08T08:12:12;15.57;;;14.10;;
27303;SDS011;14791;52.392;13.092;2023-04-08T08:14:41;15.57;;;14.13;;
27303;SDS011;14791;52.392;13.092;2023-04-08T08:17:10;15.17;;;13.67;;
27303;SDS011;14791;52.392;13.092;2023-04-08T08:19:39;15.00;;;13.67;;
27303;SDS011;14791;52.392;13.092;2023-04-08T08:22:07;14.90;;;13.33;;
27303;SDS011;14791;52.392;13.092;2023-04-08T08:24:38;15.73;;;14.07;;
27303;SDS011;14791;52.392;13.092;2023-04-08T08:27:10;15.87;;;14.37;;
27303;SDS011;14791;52.392;13.092;2023-04-08T08:29:39;16.17;;;14.63;;
27303;SDS011;14791;52.392;13.092;2023-04-08T08:32:08;16.27;;;14.57;;
27303;SDS011;14791;52.392;13.092;2023-04-08T08:34:36;15.90;;;14.57;;
27303;SDS011;14791;52.392;13.092;2023-04-08T08:37:05;14.77;;;13.37;;
27303;SDS011;14791;52.392;13.092;2023-04-08T08:39:34;16.03;;;14.43;;
27303;SDS011;14791;52.392;13.092;2023-04-08T08:42:03;16.57;;;14.90;;
27303;SDS011;14791;52.392;13.092;2023-04-08T08:44:33;16.57;;;15.10;;
27303;SDS011;14791;52.392;13.092;2023-04-08T08:47:02;16.00;;;14.30;;
27303;SDS011;14791;52.392;13.092;2023-04-08T08:49:32;14.47;;;13.17;;
27303;SDS011;14791;52.392;13.092;2023-04-08T08:52:01;14.58;;;13.40;;
27303;SDS011;14791;52.392;13.092;2023-04-08T08:54:30;15.23;;;13.73;;
27303;SDS011;14791;52.392;13.092;2023-04-08T08:56:59;16.20;;;14.60;;
27303;SDS011;14791;52.392;13.092;2023-04-08T08:59:28;15.90;;;14.37;;
27303;SDS011;14791;52.392;13.092;2023-04-08T09:01:57;16.57;;;15.17;;
27303;SDS011;14791;52.392;13.092;2023-04-08T09:04:26;15.37;;;13.93;;
27303;SDS011;14791;52.392;13.092;2023-04-08T09:07:08;15.95;;;14.45;;
27303;SDS011;14791;52.392;13.092;2023-04-08T09:09:47;17.13;;;15.57;;
27303;SDS011;14791;52.392;13.092;2023-04-08T09:12:17;16.12;;;14.70;;
27303;SDS011;14791;52.392;13.092;2023-04-08T09:14:46;15.87;;;14.37;;
27303;SDS011;14791;52.392;13.092;2023-04-08T09:17:30;17.35;;;15.65;;
27303;SDS011;14791;52.392;13.092;2023-04-08T09:20:03;16.00;;;14.50;;
27303;SDS011;14791;52.392;13.092;2023-04-08T09:25:42;14.87;;;13.40;;
27303;SDS011;14791;52.392;13.092;2023-04-08T09:27:58;14.90;;;13.50;;
27303;SDS011;14791;52.392;13.092;2023-04-08T09:30:29;14.43;;;13.03;;
27303;SDS011;14791;52.392;13.092;2023-04-08T09:32:59;14.13;;;12.97;;
27303;SDS011;14791;52.392;13.092;2023-04-08T09:35:30;12.75;;;11.68;;
27303;SDS011;14791;52.392;13.092;2023-04-08T09:37:59;14.85;;;13.55;;
27303;SDS011;14791;52.392;13.092;2023-04-08T09:40:28;15.08;;;13.70;;
27303;SDS011;14791;52.392;13.092;2023-04-08T09:43:07;14.60;;;13.20;;
27303;SDS011;14791;52.392;13.092;2023-04-08T09:45:35;14.13;;;12.87;;
27303;SDS011;14791;52.392;13.092;2023-04-08T09:48:11;14.50;;;13.37;;
27303;SDS011;14791;52.392;13.092;2023-04-08T09:50:42;14.18;;;12.93;;
27303;SDS011;14791;52.392;13.092;2023-04-08T09:53:19;14.47;;;13.10;;
27303;SDS011;14791;52.392;13.092;2023-04-08T09:55:51;14.60;;;13.33;;
27303;SDS011;14791;52.392;13.092;2023-04-08T09:58:19;13.70;;;12.70;;
27303;SDS011;14791;52.392;13.092;2023-04-08T10:00:51;13.25;;;12.25;;
27303;SDS011;14791;52.392;13.092;2023-04-08T10:03:25;13.20;;;12.10;;
27303;SDS011;14791;52.392;13.092;2023-04-08T10:06:03;12.50;;;11.47;;
27303;SDS011;14791;52.392;13.092;2023-04-08T10:08:34;13.22;;;12.23;;
27303;SDS011;14791;52.392;13.092;2023-04-08T10:11:03;13.63;;;12.57;;
27303;SDS011;14791;52.392;13.092;2023-04-08T10:13:33;12.47;;;11.57;;
27303;SDS011;14791;52.392;13.092;2023-04-08T10:16:21;13.20;;;12.00;;
27303;SDS011;14791;52.392;13.092;2023-04-08T10:18:53;12.50;;;11.30;;
27303;SDS011;14791;52.392;13.092;2023-04-08T10:21:39;13.83;;;12.60;;
27303;SDS011;14791;52.392;13.092;2023-04-08T10:24:13;13.93;;;12.73;;
27303;SDS011;14791;52.392;13.092;2023-04-08T10:26:42;13.03;;;11.93;;
27303;SDS011;14791;52.392;13.092;2023-04-08T10:31:50;12.93;;;11.83;;
27303;SDS011;14791;52.392;13.092;2023-04-08T10:34:20;13.37;;;12.20;;
27303;SDS011;14791;52.392;13.092;2023-04-08T10:36:54;13.00;;;11.88;;
27303;SDS011;14791;52.392;13.092;2023-04-08T10:39:25;12.63;;;11.53;;
27303;SDS011;14791;52.392;13.092;2023-04-08T10:41:54;13.27;;;12.17;;
27303;SDS011;14791;52.392;13.092;2023-04-08T10:44:26;12.87;;;11.90;;
27303;SDS011;14791;52.392;13.092;2023-04-08T10:46:55;12.97;;;11.97;;
27303;SDS011;14791;52.392;13.092;2023-04-08T10:49:31;12.73;;;11.63;;
27303;SDS011;14791;52.392;13.092;2023-04-08T10:52:05;13.97;;;12.63;;
27303;SDS011;14791;52.392;13.092;2023-04-08T10:54:35;12.80;;;11.78;;
27303;SDS011;14791;52.392;13.092;2023-04-08T10:57:04;13.27;;;12.17;;
27303;SDS011;14791;52.392;13.092;2023-04-08T10:59:33;13.00;;;11.85;;
27303;SDS011;14791;52.392;13.092;2023-04-08T11:02:02;13.68;;;12.58;;
27303;SDS011;14791;52.392;13.092;2023-04-08T11:04:31;12.18;;;11.25;;
27303;SDS011;14791;52.392;13.092;2023-04-08T11:07:01;11.55;;;10.63;;
27303;SDS011;14791;52.392;13.092;2023-04-08T11:09:34;11.55;;;10.65;;
27303;SDS011;14791;52.392;13.092;2023-04-08T11:12:06;11.30;;;10.38;;
27303;SDS011;14791;52.392;13.092;2023-04-08T11:14:35;10.25;;;9.55;;
27303;SDS011;14791;52.392;13.092;2023-04-08T11:17:06;10.30;;;9.70;;
27303;SDS011;14791;52.392;13.092;2023-04-08T11:19:35;9.90;;;9.28;;
27303;SDS011;14791;52.392;13.092;2023-04-08T11:22:05;10.15;;;9.45;;
27303;SDS011;14791;52.392;13.092;2023-04-08T11:24:36;11.35;;;10.43;;
27303;SDS011;14791;52.392;13.092;2023-04-08T11:27:06;8.38;;;7.90;;
27303;SDS011;14791;52.392;13.092;2023-04-08T11:29:35;10.45;;;9.65;;
27303;SDS011;14791;52.392;13.092;2023-04-08T11:32:05;10.55;;;9.85;;
27303;SDS011;14791;52.392;13.092;2023-04-08T11:34:37;10.32;;;9.50;;
27303;SDS011;14791;52.392;13.092;2023-04-08T11:37:08;10.65;;;9.85;;
27303;SDS011;14791;52.392;13.092;2023-04-08T11:39:42;10.43;;;9.68;;
27303;SDS011;14791;52.392;13.092;2023-04-08T11:42:29;10.35;;;9.70;;
27303;SDS011;14791;52.392;13.092;2023-04-08T11:44:55;10.55;;;9.63;;
27303;SDS011;14791;52.392;13.092;2023-04-08T11:47:30;10.35;;;9.65;;
27303;SDS011;14791;52.392;13.092;2023-04-08T11:49:59;15.20;;;13.78;;
27303;SDS011;14791;52.392;13.092;2023-04-08T11:52:48;13.38;;;12.37;;
27303;SDS011;14791;52.392;13.092;2023-04-08T11:58:04;12.10;;;11.03;;
27303;SDS011;14791;52.392;13.092;2023-04-08T12:00:33;12.05;;;11.05;;
27303;SDS011;14791;52.392;13.092;2023-04-08T12:03:03;10.93;;;10.08;;
27303;SDS011;14791;52.392;13.092;2023-04-08T12:05:32;11.22;;;10.38;;
27303;SDS011;14791;52.392;13.092;2023-04-08T12:08:02;9.33;;;8.68;;
27303;SDS011;14791;52.392;13.092;2023-04-08T12:10:31;10.30;;;9.70;;
27303;SDS011;14791;52.392;13.092;2023-04-08T12:13:00;10.65;;;9.80;;
27303;SDS011;14791;52.392;13.092;2023-04-08T12:15:29;9.90;;;9.30;;
27303;SDS011;14791;52.392;13.092;2023-04-08T12:17:58;9.60;;;9.00;;
27303;SDS011;14791;52.392;13.092;2023-04-08T12:20:27;9.65;;;9.08;;
27303;SDS011;14791;52.392;13.092;2023-04-08T12:22:56;10.85;;;10.03;;
27303;SDS011;14791;52.392;13.092;2023-04-08T12:25:25;10.35;;;9.65;;
27303;SDS011;14791;52.392;13.092;2023-04-08T12:27:55;10.90;;;10.13;;
27303;SDS011;14791;52.392;13.092;2023-04-08T12:30:23;9.05;;;8.55;;
27303;SDS011;14791;52.392;13.092;2023-04-08T12:32:52;9.40;;;8.70;;
27303;SDS011;14791;52.392;13.092;2023-04-08T12:35:21;11.03;;;10.30;;
27303;SDS011;14791;52.392;13.092;2023-04-08T12:37:50;10.20;;;9.53;;
27303;SDS011;14791;52.392;13.092;2023-04-08T12:40:19;9.90;;;9.30;;
27303;SDS011;14791;52.392;13.092;2023-04-08T12:42:48;9.45;;;8.90;;
27303;SDS011;14791;52.392;13.092;2023-04-08T12:45:17;9.53;;;9.00;;
27303;SDS011;14791;52.392;13.092;2023-04-08T12:47:46;9.50;;;8.88;;
27303;SDS011;14791;52.392;13.092;2023-04-08T12:50:15;9.35;;;8.55;;
27303;SDS011;14791;52.392;13.092;2023-04-08T12:52:44;9.10;;;8.58;;
27303;SDS011;14791;52.392;13.092;2023-04-08T12:55:13;10.00;;;9.30;;
27303;SDS011;14791;52.392;13.092;2023-04-08T12:57:42;10.82;;;10.23;;
27303;SDS011;14791;52.392;13.092;2023-04-08T13:00:11;9.28;;;8.78;;
27303;SDS011;14791;52.392;13.092;2023-04-08T13:02:41;8.65;;;8.08;;
27303;SDS011;14791;52.392;13.092;2023-04-08T13:05:10;8.73;;;8.23;;
27303;SDS011;14791;52.392;13.092;2023-04-08T13:07:39;9.30;;;8.70;;
27303;SDS011;14791;52.392;13.092;2023-04-08T13:10:08;8.23;;;7.85;;
27303;SDS011;14791;52.392;13.092;2023-04-08T13:12:37;7.78;;;7.37;;
27303;SDS011;14791;52.392;13.092;2023-04-08T13:15:06;8.48;;;7.95;;
27303;SDS011;14791;52.392;13.092;2023-04-08T13:17:36;8.53;;;8.08;;
27303;SDS011;14791;52.392;13.092;2023-04-08T13:20:05;5.47;;;5.28;;
27303;SDS011;14791;52.392;13.092;2023-04-08T13:22:36;6.17;;;5.97;;
27303;SDS011;14791;52.392;13.092;2023-04-08T13:25:07;6.17;;;5.97;;
27303;SDS011;14791;52.392;13.092;2023-04-08T13:27:36;6.85;;;6.47;;
27303;SDS011;14791;52.392;13.092;2023-04-08T13:30:05;6.12;;;5.92;;
27303;SDS011;14791;52.392;13.092;2023-04-08T13:32:35;6.65;;;6.45;;
27303;SDS011;14791;52.392;13.092;2023-04-08T13:35:04;7.22;;;6.92;;
27303;SDS011;14791;52.392;13.092;2023-04-08T13:37:33;7.65;;;7.35;;
27303;SDS011;14791;52.392;13.092;2023-04-08T13:40:04;7.03;;;6.72;;
27303;SDS011;14791;52.392;13.092;2023-04-08T13:42:34;7.47;;;7.15;;
27303;SDS011;14791;52.392;13.092;2023-04-08T13:45:03;6.45;;;6.25;;
27303;SDS011;14791;52.392;13.092;2023-04-08T13:47:33;6.67;;;6.40;;
27303;SDS011;14791;52.392;13.092;2023-04-08T13:50:03;6.97;;;6.67;;
27303;SDS011;14791;52.392;13.092;2023-04-08T13:52:32;6.10;;;5.90;;
27303;SDS011;14791;52.392;13.092;2023-04-08T13:55:01;5.92;;;5.70;;
27303;SDS011;14791;52.392;13.092;2023-04-08T13:57:31;5.80;;;5.55;;
27303;SDS011;14791;52.392;13.092;2023-04-08T13:59:59;5.80;;;5.60;;
27303;SDS011;14791;52.392;13.092;2023-04-08T14:02:28;5.50;;;5.30;;
27303;SDS011;14791;52.392;13.092;2023-04-08T14:04:57;5.60;;;5.40;;
27303;SDS011;14791;52.392;13.092;2023-04-08T14:07:26;5.65;;;5.45;;
27303;SDS011;14791;52.392;13.092;2023-04-08T14:09:55;5.47;;;5.28;;
27303;SDS011;14791;52.392;13.092;2023-04-08T14:12:24;5.22;;;5.03;;
27303;SDS011;14791;52.392;13.092;2023-04-08T14:14:53;5.03;;;4.83;;
27303;SDS011;14791;52.392;13.092;2023-04-08T14:17:22;4.35;;;4.25;;
27303;SDS011;14791;52.392;13.092;2023-04-08T14:19:51;4.60;;;4.50;;
27303;SDS011;14791;52.392;13.092;2023-04-08T14:22:20;4.58;;;4.47;;
27303;SDS011;14791;52.392;13.092;2023-04-08T14:24:48;4.10;;;4.00;;
27303;SDS011;14791;52.392;13.092;2023-04-08T14:27:17;5.20;;;5.00;;
27303;SDS011;14791;52.392;13.092;2023-04-08T14:29:46;4.60;;;4.40;;
27303;SDS011;14791;52.392;13.092;2023-04-08T14:32:15;4.00;;;3.90;;
27303;SDS011;14791;52.392;13.092;2023-04-08T14:34:44;3.98;;;3.87;;
27303;SDS011;14791;52.392;13.092;2023-04-08T14:37:13;3.55;;;3.45;;
27303;SDS011;14791;52.392;13.092;2023-04-08T14:39:43;4.00;;;3.90;;
27303;SDS011;14791;52.392;13.092;2023-04-08T14:42:13;4.67;;;4.58;;
27303;SDS011;14791;52.392;13.092;2023-04-08T14:44:43;4.47;;;4.37;;